createdAt,value
2019-01-23T00:02:10.718Z,12.20
2019-01-23T00:04:37.097Z,12.20
2019-01-23T00:07:03.319Z,12.20
2019-01-23T00:09:29.553Z,12.20
2019-01-23T00:11:55.944Z,12.10
2019-01-23T00:14:22.198Z,12.10
2019-01-23T00:16:48.447Z,12.20
2019-01-23T00:19:14.628Z,12.10
2019-01-23T00:21:40.895Z,12.20
2019-01-23T00:24:07.180Z,12.20
2019-01-23T00:26:33.589Z,12.10
2019-01-23T00:28:59.977Z,12.20
2019-01-23T00:31:26.250Z,12.20
2019-01-23T00:33:52.646Z,12.20
2019-01-23T00:36:18.874Z,12.20
2019-01-23T00:38:45.047Z,12.10
2019-01-23T00:41:12.151Z,12.20
2019-01-23T00:43:38.392Z,12.10
2019-01-23T00:46:04.605Z,12.20
2019-01-23T00:48:30.827Z,12.10
2019-01-23T00:50:57.068Z,12.10
2019-01-23T00:53:23.289Z,12.10
2019-01-23T00:55:49.530Z,12.20
2019-01-23T00:58:15.743Z,12.10
2019-01-23T01:00:41.992Z,12.20
2019-01-23T01:03:09.835Z,12.10
2019-01-23T01:05:36.127Z,12.10
2019-01-23T01:08:02.499Z,12.20
2019-01-23T01:10:28.732Z,12.10
2019-01-23T01:12:54.946Z,12.10
2019-01-23T01:15:21.191Z,12.10
2019-01-23T01:17:47.403Z,12.20
2019-01-23T01:20:13.700Z,12.20
2019-01-23T01:22:40.069Z,12.20
2019-01-23T01:25:06.302Z,12.20
2019-01-23T01:27:32.549Z,12.10
2019-01-23T01:29:58.776Z,12.10
2019-01-23T01:32:25.011Z,12.10
2019-01-23T01:34:51.224Z,12.10
2019-01-23T01:37:17.467Z,12.20
2019-01-23T01:39:45.324Z,12.10
2019-01-23T01:42:11.527Z,12.10
2019-01-23T01:44:37.775Z,12.20
2019-01-23T01:47:04.000Z,12.10
2019-01-23T01:49:30.220Z,12.10
2019-01-23T01:51:56.456Z,12.20
2019-01-23T01:54:22.753Z,12.10
2019-01-23T01:56:49.103Z,12.20
2019-01-23T01:59:15.294Z,12.20
2019-01-23T02:01:41.561Z,12.20
2019-01-23T02:04:07.793Z,12.20
2019-01-23T02:06:34.028Z,12.10
2019-01-23T02:09:00.223Z,12.10
2019-01-23T02:11:26.512Z,12.20
2019-01-23T02:13:52.916Z,12.20
2019-01-23T02:16:19.141Z,12.10
2019-01-23T02:18:45.322Z,12.10
2019-01-23T02:21:11.599Z,12.20
2019-01-23T02:23:37.833Z,12.10
2019-01-23T02:26:04.050Z,12.20
2019-01-23T02:28:30.283Z,12.20
2019-01-23T02:30:56.509Z,12.10
2019-01-23T02:33:22.772Z,12.20
2019-01-23T02:35:49.165Z,12.10
2019-01-23T02:38:15.356Z,12.20
2019-01-23T02:40:41.620Z,12.10
2019-01-23T02:43:07.846Z,12.20
2019-01-23T02:45:34.079Z,12.10
2019-01-23T02:48:00.312Z,12.20
2019-01-23T02:50:26.522Z,12.10
2019-01-23T02:52:52.771Z,12.10
2019-01-23T02:55:19.064Z,12.10
2019-01-23T02:57:45.488Z,12.10
2019-01-23T03:00:11.861Z,12.10
2019-01-23T03:02:38.093Z,12.10
2019-01-23T03:05:04.329Z,12.10
2019-01-23T03:07:32.183Z,12.10
2019-01-23T03:09:58.411Z,12.10
2019-01-23T03:12:24.586Z,12.10
2019-01-23T03:14:51.521Z,12.10
2019-01-23T03:17:17.907Z,12.00
2019-01-23T03:19:44.146Z,12.10
2019-01-23T03:22:10.401Z,12.10
2019-01-23T03:24:36.791Z,12.10
2019-01-23T03:27:03.050Z,12.10
2019-01-23T03:29:30.908Z,12.10
2019-01-23T03:31:57.133Z,12.00
2019-01-23T03:34:23.716Z,12.10
2019-01-23T03:36:50.007Z,12.10
2019-01-23T03:39:16.442Z,12.10
2019-01-23T03:41:43.475Z,12.00
2019-01-23T03:44:09.707Z,12.10
2019-01-23T03:46:35.900Z,12.10
2019-01-23T03:49:02.163Z,12.10
2019-01-23T03:51:28.382Z,12.10
2019-01-23T03:53:55.031Z,12.00
2019-01-23T03:56:21.239Z,12.10
2019-01-23T03:58:47.492Z,12.10
2019-01-23T04:01:13.731Z,12.00
2019-01-23T04:03:39.927Z,12.00
2019-01-23T04:06:06.154Z,12.00
2019-01-23T04:08:32.393Z,12.10
2019-01-23T04:10:58.673Z,12.10
2019-01-23T04:13:25.039Z,12.10
2019-01-23T04:15:51.304Z,12.10
2019-01-23T04:18:17.503Z,12.10
2019-01-23T04:20:43.790Z,12.10
2019-01-23T04:23:10.175Z,12.10
2019-01-23T04:25:38.031Z,12.10
2019-01-23T04:28:04.267Z,12.10
2019-01-23T04:30:30.494Z,12.10
2019-01-23T04:32:56.664Z,12.00
2019-01-23T04:35:23.756Z,12.00
2019-01-23T04:37:49.988Z,12.00
2019-01-23T04:40:16.245Z,12.00
2019-01-23T04:42:42.440Z,12.10
2019-01-23T04:45:08.663Z,12.10
2019-01-23T04:47:34.936Z,12.00
2019-01-23T04:50:01.127Z,12.00
2019-01-23T04:52:27.381Z,12.00
2019-01-23T04:54:55.223Z,12.00
2019-01-23T04:57:21.462Z,12.00
2019-01-23T04:59:47.687Z,12.10
2019-01-23T05:02:13.916Z,12.00
2019-01-23T05:04:40.132Z,12.10
2019-01-23T05:07:06.423Z,12.10
2019-01-23T05:09:32.797Z,12.00
2019-01-23T05:11:59.021Z,12.00
2019-01-23T05:14:25.250Z,12.00
2019-01-23T05:16:51.488Z,12.00
2019-01-23T05:19:17.707Z,12.00
2019-01-23T05:21:43.947Z,12.00
2019-01-23T05:24:10.152Z,12.00
2019-01-23T05:26:36.404Z,12.00
2019-01-23T05:29:02.620Z,12.00
2019-01-23T05:31:28.849Z,12.00
2019-01-23T05:33:55.090Z,12.00
2019-01-23T05:36:21.321Z,12.00
2019-01-23T05:38:47.533Z,12.00
2019-01-23T05:41:13.779Z,12.00
2019-01-23T05:43:40.731Z,12.00
2019-01-23T05:46:07.024Z,12.00
2019-01-23T05:48:33.272Z,12.00
2019-01-23T05:50:59.488Z,12.00
2019-01-23T05:53:25.712Z,12.00
2019-01-23T05:55:51.959Z,12.00
2019-01-23T05:58:18.188Z,12.00
2019-01-23T06:00:44.463Z,12.00
2019-01-23T06:03:10.849Z,12.00
2019-01-23T06:05:37.059Z,12.00
2019-01-23T06:08:03.320Z,12.00
2019-01-23T06:10:31.162Z,12.00
2019-01-23T06:12:57.450Z,12.00
2019-01-23T06:15:23.835Z,12.00
2019-01-23T06:17:50.038Z,12.00
2019-01-23T06:20:16.265Z,12.00
2019-01-23T06:22:42.519Z,12.00
2019-01-23T06:25:08.726Z,12.00
2019-01-23T06:27:34.961Z,12.00
2019-01-23T06:30:01.209Z,11.90
2019-01-23T06:32:27.424Z,12.00
2019-01-23T06:34:53.689Z,12.00
2019-01-23T06:37:20.080Z,12.00
2019-01-23T06:39:46.314Z,12.00
2019-01-23T06:42:12.534Z,11.90
2019-01-23T06:44:38.763Z,12.00
2019-01-23T06:47:04.998Z,12.00
2019-01-23T06:49:31.212Z,12.00
2019-01-23T06:51:57.458Z,11.90
2019-01-23T06:54:23.656Z,11.90
2019-01-23T06:56:49.909Z,12.00
2019-01-23T06:59:16.127Z,12.00
2019-01-23T07:01:42.357Z,12.00
2019-01-23T07:04:08.583Z,12.00
2019-01-23T07:06:34.764Z,12.00
2019-01-23T07:09:00.981Z,12.00
2019-01-23T07:11:28.092Z,12.00
2019-01-23T07:13:54.316Z,11.90
2019-01-23T07:16:20.542Z,11.90
2019-01-23T07:18:46.796Z,11.90
2019-01-23T07:21:12.995Z,11.90
2019-01-23T07:23:39.224Z,11.90
2019-01-23T07:26:05.456Z,11.90
2019-01-23T07:28:31.687Z,12.00
2019-01-23T07:30:57.897Z,12.00
2019-01-23T07:33:24.157Z,11.90
2019-01-23T07:35:50.369Z,11.90
2019-01-23T07:38:16.556Z,12.00
2019-01-23T07:40:42.854Z,12.00
2019-01-23T07:43:09.063Z,11.90
2019-01-23T07:45:35.337Z,11.90
2019-01-23T07:48:01.717Z,11.90
2019-01-23T07:50:27.951Z,11.90
2019-01-23T07:52:54.167Z,11.90
2019-01-23T07:55:20.408Z,11.90
2019-01-23T07:57:46.868Z,11.90
2019-01-23T08:00:13.263Z,11.90
2019-01-23T08:02:39.550Z,11.90
2019-01-23T08:05:05.925Z,11.90
2019-01-23T08:07:32.155Z,11.90
2019-01-23T08:09:58.382Z,11.90
2019-01-23T08:12:24.621Z,11.90
2019-01-23T08:14:50.840Z,11.90
2019-01-23T08:17:17.076Z,11.90
2019-01-23T08:19:43.295Z,11.90
2019-01-23T08:22:09.511Z,11.90
2019-01-23T08:24:35.748Z,11.90
2019-01-23T08:27:07.179Z,11.90
2019-01-23T08:29:30.057Z,11.90
2019-01-23T08:31:56.271Z,11.90
2019-01-23T08:34:22.508Z,11.90
2019-01-23T08:36:48.738Z,11.90
2019-01-23T08:39:14.948Z,11.90
2019-01-23T08:41:41.195Z,11.90
2019-01-23T08:44:07.386Z,11.90
2019-01-23T08:46:33.584Z,11.90
2019-01-23T08:49:00.687Z,11.90
2019-01-23T08:51:26.918Z,11.90
2019-01-23T08:53:53.157Z,11.90
2019-01-23T08:56:19.384Z,11.90
2019-01-23T08:58:45.598Z,11.90
2019-01-23T09:01:11.887Z,11.90
2019-01-23T09:03:38.271Z,11.90
2019-01-23T09:06:04.500Z,11.90
2019-01-23T09:08:37.474Z,11.90
2019-01-23T09:10:57.151Z,11.90
2019-01-23T09:13:23.395Z,11.90
2019-01-23T09:15:49.608Z,11.90
2019-01-23T09:18:15.830Z,11.90
2019-01-23T09:20:42.072Z,11.90
2019-01-23T09:23:08.288Z,11.90
2019-01-23T09:25:34.544Z,11.90
2019-01-23T09:28:00.750Z,11.90
2019-01-23T09:30:26.976Z,11.90
2019-01-23T09:32:53.139Z,11.90
2019-01-23T09:35:20.309Z,11.90
2019-01-23T09:37:46.511Z,11.90
2019-01-23T09:40:13.539Z,11.90
2019-01-23T09:42:39.741Z,11.90
2019-01-23T09:45:05.988Z,11.90
2019-01-23T09:47:32.195Z,11.90
2019-01-23T09:49:58.445Z,11.90
2019-01-23T09:52:24.724Z,11.90
2019-01-23T09:54:51.172Z,11.90
2019-01-23T09:57:17.539Z,11.80
2019-01-23T09:59:43.759Z,11.90
2019-01-23T10:02:09.979Z,11.80
2019-01-23T10:04:36.223Z,11.80
2019-01-23T10:07:02.451Z,11.90
2019-01-23T10:09:28.671Z,11.90
2019-01-23T10:11:54.913Z,11.90
2019-01-23T10:14:21.147Z,11.90
2019-01-23T10:16:48.986Z,11.90
2019-01-23T10:19:15.235Z,11.90
2019-01-23T10:21:41.449Z,11.80
2019-01-23T10:24:07.667Z,11.80
2019-01-23T10:26:33.915Z,11.90
2019-01-23T10:29:00.143Z,11.80
2019-01-23T10:31:28.007Z,11.90
2019-01-23T10:33:54.245Z,11.80
2019-01-23T10:36:22.368Z,11.80
2019-01-23T10:38:48.749Z,11.80
2019-01-23T10:41:14.988Z,11.90
2019-01-23T10:43:42.011Z,11.80
2019-01-23T10:46:08.242Z,11.80
2019-01-23T10:48:38.069Z,11.80
2019-01-23T10:51:00.936Z,11.80
2019-01-23T10:53:27.339Z,11.80
2019-01-23T10:55:53.555Z,11.80
2019-01-23T10:58:19.779Z,11.80
2019-01-23T11:00:46.016Z,11.90
2019-01-23T11:03:12.235Z,11.80
2019-01-23T11:05:38.528Z,11.90
2019-01-23T11:08:04.893Z,11.80
2019-01-23T11:10:31.140Z,11.80
2019-01-23T11:12:57.385Z,11.80
2019-01-23T11:15:23.607Z,11.80
2019-01-23T11:17:51.474Z,11.80
2019-01-23T11:20:17.710Z,11.80
2019-01-23T11:22:44.104Z,11.80
2019-01-23T11:25:10.346Z,11.80
2019-01-23T11:27:36.581Z,11.80
2019-01-23T11:30:08.581Z,11.80
2019-01-23T11:32:34.968Z,11.80
2019-01-23T11:35:01.204Z,11.90
2019-01-23T11:37:27.449Z,11.80
2019-01-23T11:39:53.719Z,11.80
2019-01-23T11:42:20.084Z,11.80
2019-01-23T11:44:46.307Z,11.80
2019-01-23T11:47:12.553Z,11.90
2019-01-23T11:49:38.793Z,11.80
2019-01-23T11:52:05.834Z,11.80
2019-01-23T11:54:32.078Z,11.80
2019-01-23T11:56:58.291Z,11.80
2019-01-23T11:59:26.136Z,11.80
2019-01-23T12:01:52.361Z,11.80
2019-01-23T12:04:18.647Z,11.90
2019-01-23T12:06:45.585Z,11.80
2019-01-23T12:09:11.879Z,11.80
2019-01-23T12:11:38.109Z,11.90
2019-01-23T12:14:04.316Z,11.80
2019-01-23T12:16:30.575Z,11.80
2019-01-23T12:18:56.772Z,11.80
2019-01-23T12:21:23.031Z,11.80
2019-01-23T12:23:49.258Z,11.90
2019-01-23T12:26:15.476Z,11.80
2019-01-23T12:28:43.344Z,11.80
2019-01-23T12:31:09.571Z,11.80
2019-01-23T12:33:35.779Z,11.80
2019-01-23T12:36:02.007Z,11.80
2019-01-23T12:38:28.239Z,11.80
2019-01-23T12:40:54.668Z,11.90
2019-01-23T12:43:20.912Z,11.80
2019-01-23T12:45:47.132Z,11.90
2019-01-23T12:48:13.358Z,11.80
2019-01-23T12:50:39.599Z,11.80
2019-01-23T12:53:05.807Z,11.90
2019-01-23T12:55:32.023Z,11.90
2019-01-23T12:57:58.286Z,11.80
2019-01-23T13:00:24.709Z,11.80
2019-01-23T13:02:50.988Z,11.80
2019-01-23T13:05:17.357Z,11.80
2019-01-23T13:07:43.603Z,11.90
2019-01-23T13:10:09.830Z,11.90
2019-01-23T13:12:36.052Z,11.80
2019-01-23T13:15:02.288Z,11.90
2019-01-23T13:17:28.719Z,11.90
2019-01-23T13:19:54.942Z,11.80
2019-01-23T13:22:21.361Z,11.90
2019-01-23T13:24:47.599Z,11.90
2019-01-23T13:27:13.823Z,11.90
2019-01-23T13:29:40.069Z,11.80
2019-01-23T13:32:06.271Z,11.80
2019-01-23T13:34:32.525Z,11.90
2019-01-23T13:36:58.744Z,11.80
2019-01-23T13:39:24.996Z,11.90
2019-01-23T13:41:52.026Z,11.80
2019-01-23T13:44:18.269Z,11.80
2019-01-23T13:46:44.470Z,11.80
2019-01-23T13:49:10.709Z,11.80
2019-01-23T13:51:38.571Z,11.80
2019-01-23T13:54:06.443Z,11.80
2019-01-23T13:56:32.676Z,11.80
2019-01-23T13:58:58.911Z,11.90
2019-01-23T14:01:25.191Z,11.80
2019-01-23T14:03:51.539Z,11.80
2019-01-23T14:06:17.832Z,11.80
2019-01-23T14:08:44.224Z,11.80
2019-01-23T14:11:10.427Z,11.80
2019-01-23T14:13:37.072Z,11.80
2019-01-23T14:16:03.271Z,11.80
2019-01-23T14:18:29.799Z,11.80
2019-01-23T14:20:56.185Z,11.80
2019-01-23T14:23:22.455Z,11.80
2019-01-23T14:25:48.836Z,11.80
2019-01-23T14:28:15.067Z,11.80
2019-01-23T14:30:41.499Z,11.80
2019-01-23T14:33:07.721Z,11.80
2019-01-23T14:35:33.960Z,11.80
2019-01-23T14:38:01.801Z,11.80
2019-01-23T14:40:28.053Z,11.80
2019-01-23T14:42:54.286Z,11.80
2019-01-23T14:45:20.495Z,11.80
2019-01-23T14:47:46.740Z,11.80
2019-01-23T14:50:13.102Z,11.80
2019-01-23T14:52:39.381Z,11.80
2019-01-23T14:55:06.215Z,11.80
2019-01-23T14:57:32.528Z,11.80
2019-01-23T14:59:58.899Z,11.80
2019-01-23T15:02:25.121Z,11.80
2019-01-23T15:04:51.364Z,11.80
2019-01-23T15:07:19.213Z,11.80
2019-01-23T15:09:45.455Z,11.80
2019-01-23T15:12:13.307Z,11.80
2019-01-23T15:14:39.547Z,11.80
2019-01-23T15:17:05.788Z,11.80
2019-01-23T15:19:33.669Z,11.80
2019-01-23T15:21:59.864Z,11.80
2019-01-23T15:24:26.073Z,11.80
2019-01-23T15:26:52.306Z,11.80
2019-01-23T15:29:18.542Z,11.80
2019-01-23T15:31:46.461Z,11.80
2019-01-23T15:34:12.855Z,11.80
2019-01-23T15:36:39.068Z,11.80
2019-01-23T15:39:05.285Z,11.80
2019-01-23T15:41:31.525Z,11.80
2019-01-23T15:43:57.733Z,11.80
2019-01-23T15:46:24.004Z,11.80
2019-01-23T15:48:50.216Z,11.80
2019-01-23T15:51:16.490Z,11.80
2019-01-23T15:53:42.854Z,11.80
2019-01-23T15:56:09.092Z,11.80
2019-01-23T15:58:35.329Z,11.80
2019-01-23T16:01:01.601Z,11.80
2019-01-23T16:03:28.016Z,11.80
2019-01-23T16:05:54.422Z,11.80
2019-01-23T16:08:20.656Z,11.80
2019-01-23T16:10:46.928Z,11.80
2019-01-23T16:13:13.323Z,11.80
2019-01-23T16:15:41.168Z,11.80
2019-01-23T16:18:07.391Z,11.80
2019-01-23T16:20:33.638Z,11.80
2019-01-23T16:22:59.852Z,11.80
2019-01-23T16:25:26.114Z,11.80
2019-01-23T16:27:52.313Z,11.80
2019-01-23T16:30:18.564Z,11.80
2019-01-23T16:32:44.770Z,11.80
2019-01-23T16:35:11.025Z,11.70
2019-01-23T16:37:37.444Z,11.70
2019-01-23T16:40:03.643Z,11.70
2019-01-23T16:42:29.891Z,11.70
2019-01-23T16:44:56.128Z,11.70
2019-01-23T16:47:24.034Z,11.70
2019-01-23T16:49:50.199Z,11.70
2019-01-23T16:52:16.424Z,11.70
2019-01-23T16:54:42.655Z,11.80
2019-01-23T16:57:08.932Z,11.80
2019-01-23T16:59:35.288Z,11.80
2019-01-23T17:02:01.563Z,11.80
2019-01-23T17:04:27.773Z,11.80
2019-01-23T17:06:54.004Z,11.80
2019-01-23T17:09:20.222Z,11.80
2019-01-23T17:11:46.457Z,11.80
2019-01-23T17:14:12.694Z,11.80
2019-01-23T17:16:38.926Z,11.70
2019-01-23T17:19:05.160Z,11.70
2019-01-23T17:21:33.043Z,11.70
2019-01-23T17:23:59.430Z,11.70
2019-01-23T17:26:25.662Z,11.70
2019-01-23T17:28:51.909Z,11.70
2019-01-23T17:31:18.140Z,11.70
2019-01-23T17:33:44.588Z,11.70
2019-01-23T17:36:10.600Z,11.70
2019-01-23T17:38:36.789Z,11.70
2019-01-23T17:41:03.047Z,11.70
2019-01-23T17:43:31.526Z,11.70
2019-01-23T17:45:57.759Z,11.70
2019-01-23T17:48:23.983Z,11.70
2019-01-23T17:50:50.213Z,11.70
2019-01-23T17:53:16.434Z,11.70
2019-01-23T17:55:42.656Z,11.70
2019-01-23T17:58:08.891Z,11.70
2019-01-23T18:00:35.129Z,11.70
2019-01-23T18:03:01.364Z,11.70
2019-01-23T18:05:27.787Z,11.70
2019-01-23T18:07:55.446Z,11.70
2019-01-23T18:10:20.652Z,11.70
2019-01-23T18:12:46.870Z,11.70
2019-01-23T18:15:13.104Z,11.70
2019-01-23T18:17:39.340Z,11.70
2019-01-23T18:20:05.725Z,11.70
2019-01-23T18:22:31.992Z,11.70
2019-01-23T18:24:58.245Z,11.70
2019-01-23T18:27:24.462Z,11.70
2019-01-23T18:29:50.935Z,11.70
2019-01-23T18:32:17.307Z,11.70
2019-01-23T18:34:43.596Z,11.70
2019-01-23T18:37:09.961Z,11.70
2019-01-23T18:39:36.211Z,11.70
2019-01-23T18:42:02.435Z,11.70
2019-01-23T18:44:28.664Z,11.70
2019-01-23T18:46:54.894Z,11.70
2019-01-23T18:49:21.125Z,11.70
2019-01-23T18:51:48.981Z,11.80
2019-01-23T18:54:15.218Z,11.80
2019-01-23T18:56:41.444Z,11.70
2019-01-23T18:59:07.663Z,11.70
2019-01-23T19:01:33.886Z,11.80
2019-01-23T19:04:00.129Z,11.70
2019-01-23T19:06:26.364Z,11.70
2019-01-23T19:08:52.631Z,11.70
2019-01-23T19:11:19.011Z,11.60
2019-01-23T19:13:45.253Z,11.60
2019-01-23T19:16:11.678Z,11.60
2019-01-23T19:18:37.897Z,11.60
2019-01-23T19:21:04.145Z,11.60
2019-01-23T19:23:30.374Z,11.60
2019-01-23T19:25:56.599Z,11.60
2019-01-23T19:28:24.280Z,11.60
2019-01-23T19:30:51.288Z,11.70
2019-01-23T19:33:17.510Z,11.60
2019-01-23T19:35:43.756Z,11.70
2019-01-23T19:38:11.447Z,11.60
2019-01-23T19:40:37.848Z,11.60
2019-01-23T19:43:04.146Z,11.70
2019-01-23T19:45:30.516Z,11.70
2019-01-23T19:47:58.379Z,11.70
2019-01-23T19:50:24.593Z,11.70
2019-01-23T19:52:50.844Z,11.80
2019-01-23T19:55:17.083Z,11.80
2019-01-23T19:57:43.291Z,11.80
2019-01-23T20:00:09.522Z,11.90
2019-01-23T20:02:35.756Z,11.80
2019-01-23T20:05:01.967Z,11.80
2019-01-23T20:07:28.184Z,11.80
2019-01-23T20:09:54.423Z,11.80
2019-01-23T20:12:20.998Z,11.90
2019-01-23T20:14:48.103Z,11.90
2019-01-23T20:17:14.345Z,11.90
2019-01-23T20:19:40.575Z,11.80
2019-01-23T20:22:08.452Z,11.80
2019-01-23T20:24:34.662Z,11.80
2019-01-23T20:27:00.910Z,11.80
2019-01-23T20:29:27.111Z,11.80
2019-01-23T20:31:53.362Z,11.80
2019-01-23T20:34:19.584Z,11.80
2019-01-23T20:36:46.003Z,11.80
2019-01-23T20:39:12.280Z,11.80
2019-01-23T20:41:38.688Z,11.80
2019-01-23T20:44:05.734Z,11.70
2019-01-23T20:46:31.993Z,11.70
2019-01-23T20:48:58.389Z,11.70
2019-01-23T20:51:26.270Z,11.70
2019-01-23T20:53:52.476Z,11.70
2019-01-23T20:56:18.686Z,11.70
2019-01-23T20:58:44.930Z,11.70
2019-01-23T21:01:11.195Z,11.70
2019-01-23T21:03:37.641Z,11.70
2019-01-23T21:06:04.012Z,11.60
2019-01-23T21:08:30.255Z,11.70
2019-01-23T21:10:56.491Z,11.60
2019-01-23T21:13:22.715Z,11.70
2019-01-23T21:15:48.923Z,11.60
2019-01-23T21:18:15.212Z,11.60
2019-01-23T21:20:41.601Z,11.60
2019-01-23T21:23:07.839Z,11.50
2019-01-23T21:25:34.040Z,11.60
2019-01-23T21:28:00.276Z,11.60
2019-01-23T21:30:26.771Z,11.50
2019-01-23T21:32:53.139Z,11.60
2019-01-23T21:35:20.282Z,11.50
2019-01-23T21:37:45.813Z,11.60
2019-01-23T21:40:12.027Z,11.60
2019-01-23T21:42:38.267Z,11.60
2019-01-23T21:45:06.124Z,11.60
2019-01-23T21:47:32.359Z,11.60
2019-01-23T21:49:58.589Z,11.60
2019-01-23T21:52:26.432Z,11.60
2019-01-23T21:54:52.667Z,11.60
2019-01-23T21:57:18.905Z,11.60
2019-01-23T21:59:45.088Z,11.60
2019-01-23T22:02:11.363Z,11.60
2019-01-23T22:04:37.640Z,11.60
2019-01-23T22:07:04.697Z,11.60
2019-01-23T22:09:31.070Z,11.60
2019-01-23T22:11:57.288Z,11.60
2019-01-23T22:14:23.514Z,11.60
2019-01-23T22:16:49.804Z,11.60
2019-01-23T22:19:16.174Z,11.60
2019-01-23T22:21:42.413Z,11.60
2019-01-23T22:24:08.643Z,11.60
2019-01-23T22:26:34.858Z,11.60
2019-01-23T22:29:01.088Z,11.60
2019-01-23T22:31:27.347Z,11.60
2019-01-23T22:33:56.412Z,11.60
2019-01-23T22:36:19.983Z,11.60
2019-01-23T22:38:46.210Z,11.60
2019-01-23T22:41:12.439Z,11.60
2019-01-23T22:43:38.664Z,11.60
2019-01-23T22:46:04.907Z,11.60
2019-01-23T22:48:31.110Z,11.60
2019-01-23T22:50:57.351Z,11.60
2019-01-23T22:53:23.601Z,11.60
2019-01-23T22:55:49.878Z,11.60
2019-01-23T22:58:16.262Z,11.60
2019-01-23T23:00:44.095Z,11.60
2019-01-23T23:03:10.327Z,11.60
2019-01-23T23:05:36.571Z,11.60
2019-01-23T23:08:02.845Z,11.60
2019-01-23T23:10:29.234Z,11.60
2019-01-23T23:12:55.444Z,11.60
2019-01-23T23:15:21.687Z,11.60
2019-01-23T23:17:47.963Z,11.60
2019-01-23T23:20:14.349Z,11.70
2019-01-23T23:22:40.579Z,11.60
2019-01-23T23:25:06.800Z,11.60
2019-01-23T23:27:39.190Z,11.60
2019-01-23T23:29:59.239Z,11.60
2019-01-23T23:32:25.454Z,11.70
2019-01-23T23:34:51.761Z,11.70
2019-01-23T23:37:18.144Z,11.70
2019-01-23T23:39:44.368Z,11.70
2019-01-23T23:42:10.604Z,11.70
2019-01-23T23:44:36.824Z,11.70
2019-01-23T23:47:03.046Z,11.70
2019-01-23T23:49:29.286Z,11.70
2019-01-23T23:51:55.510Z,11.70
2019-01-23T23:54:21.770Z,11.70
2019-01-23T23:56:48.177Z,11.70
2019-01-23T23:59:16.032Z,11.70
